sensor_id;sensor_type;location;lat;lon;timestamp;temperature;humidity
39665;DHT22;26679;50.872;4.332;2023-03-11T00:02:09;3.00;99.90
39665;DHT22;26679;50.872;4.332;2023-03-11T00:04:35;3.90;99.90
39665;DHT22;26679;50.872;4.332;2023-03-11T00:07:05;3.00;99.90
39665;DHT22;26679;50.872;4.332;2023-03-11T00:09:30;3.00;99.90
39665;DHT22;26679;50.872;4.332;2023-03-11T00:11:57;2.80;99.90
39665;DHT22;26679;50.872;4.332;2023-03-11T00:14:23;2.90;99.90
39665;DHT22;26679;50.872;4.332;2023-03-11T00:16:48;2.80;99.90
39665;DHT22;26679;50.872;4.332;2023-03-11T00:19:14;3.80;99.90
39665;DHT22;26679;50.872;4.332;2023-03-11T00:21:43;2.80;99.90
39665;DHT22;26679;50.872;4.332;2023-03-11T00:24:09;2.90;99.90
39665;DHT22;26679;50.872;4.332;2023-03-11T00:26:35;4.40;99.90
39665;DHT22;26679;50.872;4.332;2023-03-11T00:31:28;3.00;99.90
39665;DHT22;26679;50.872;4.332;2023-03-11T00:33:54;3.00;99.90
39665;DHT22;26679;50.872;4.332;2023-03-11T00:36:22;3.00;99.90
39665;DHT22;26679;50.872;4.332;2023-03-11T00:38:53;3.10;99.90
39665;DHT22;26679;50.872;4.332;2023-03-11T00:41:18;2.90;99.90
39665;DHT22;26679;50.872;4.332;2023-03-11T00:43:44;3.00;99.90
39665;DHT22;26679;50.872;4.332;2023-03-11T00:46:09;2.90;99.90
39665;DHT22;26679;50.872;4.332;2023-03-11T00:48:35;2.80;99.90
39665;DHT22;26679;50.872;4.332;2023-03-11T00:51:00;2.80;99.90
39665;DHT22;26679;50.872;4.332;2023-03-11T00:53:26;2.90;99.90
39665;DHT22;26679;50.872;4.332;2023-03-11T00:55:51;2.70;99.90
39665;DHT22;26679;50.872;4.332;2023-03-11T00:58:17;2.80;99.90
39665;DHT22;26679;50.872;4.332;2023-03-11T01:00:42;2.80;99.90
39665;DHT22;26679;50.872;4.332;2023-03-11T01:03:08;2.80;99.90
39665;DHT22;26679;50.872;4.332;2023-03-11T01:05:33;2.40;99.90
39665;DHT22;26679;50.872;4.332;2023-03-11T01:07:59;2.70;99.90
39665;DHT22;26679;50.872;4.332;2023-03-11T01:10:25;2.80;99.90
39665;DHT22;26679;50.872;4.332;2023-03-11T01:12:51;3.20;99.90
39665;DHT22;26679;50.872;4.332;2023-03-11T01:15:22;2.70;99.90
39665;DHT22;26679;50.872;4.332;2023-03-11T01:17:48;2.70;99.90
39665;DHT22;26679;50.872;4.332;2023-03-11T01:20:14;2.70;99.90
39665;DHT22;26679;50.872;4.332;2023-03-11T01:22:39;2.70;99.90
39665;DHT22;26679;50.872;4.332;2023-03-11T01:25:05;3.20;99.90
39665;DHT22;26679;50.872;4.332;2023-03-11T01:27:31;2.70;99.90
39665;DHT22;26679;50.872;4.332;2023-03-11T01:29:56;2.60;99.90
39665;DHT22;26679;50.872;4.332;2023-03-11T01:32:22;2.50;99.90
39665;DHT22;26679;50.872;4.332;2023-03-11T01:34:48;2.50;99.90
39665;DHT22;26679;50.872;4.332;2023-03-11T01:37:13;2.60;99.90
39665;DHT22;26679;50.872;4.332;2023-03-11T01:39:39;2.60;99.90
39665;DHT22;26679;50.872;4.332;2023-03-11T01:42:04;2.70;99.90
39665;DHT22;26679;50.872;4.332;2023-03-11T01:44:30;2.60;99.90
39665;DHT22;26679;50.872;4.332;2023-03-11T01:49:24;2.60;99.90
39665;DHT22;26679;50.872;4.332;2023-03-11T01:51:51;2.60;99.90
39665;DHT22;26679;50.872;4.332;2023-03-11T01:54:27;2.70;99.90
39665;DHT22;26679;50.872;4.332;2023-03-11T01:56:55;2.80;99.90
39665;DHT22;26679;50.872;4.332;2023-03-11T01:59:22;2.80;99.90
39665;DHT22;26679;50.872;4.332;2023-03-11T02:01:52;3.00;99.90
39665;DHT22;26679;50.872;4.332;2023-03-11T02:04:20;3.60;99.90
39665;DHT22;26679;50.872;4.332;2023-03-11T02:06:46;2.80;99.90
39665;DHT22;26679;50.872;4.332;2023-03-11T02:09:11;2.90;99.90
39665;DHT22;26679;50.872;4.332;2023-03-11T02:11:37;2.90;99.90
39665;DHT22;26679;50.872;4.332;2023-03-11T02:14:03;2.90;99.90
39665;DHT22;26679;50.872;4.332;2023-03-11T02:16:29;2.80;99.90
39665;DHT22;26679;50.872;4.332;2023-03-11T02:18:56;2.90;99.90
39665;DHT22;26679;50.872;4.332;2023-03-11T02:21:24;2.90;99.90
39665;DHT22;26679;50.872;4.332;2023-03-11T02:23:54;2.80;99.90
39665;DHT22;26679;50.872;4.332;2023-03-11T02:26:27;2.90;99.90
39665;DHT22;26679;50.872;4.332;2023-03-11T02:28:53;2.80;99.90
39665;DHT22;26679;50.872;4.332;2023-03-11T02:31:20;2.80;99.90
39665;DHT22;26679;50.872;4.332;2023-03-11T02:33:46;2.90;99.90
39665;DHT22;26679;50.872;4.332;2023-03-11T02:38:49;3.00;99.90
39665;DHT22;26679;50.872;4.332;2023-03-11T02:41:15;3.30;99.90
39665;DHT22;26679;50.872;4.332;2023-03-11T02:43:41;3.00;99.90
39665;DHT22;26679;50.872;4.332;2023-03-11T02:46:07;3.80;99.90
39665;DHT22;26679;50.872;4.332;2023-03-11T02:48:34;2.80;99.90
39665;DHT22;26679;50.872;4.332;2023-03-11T02:51:01;2.80;99.90
39665;DHT22;26679;50.872;4.332;2023-03-11T02:53:27;2.70;99.90
39665;DHT22;26679;50.872;4.332;2023-03-11T02:55:53;2.70;99.90
39665;DHT22;26679;50.872;4.332;2023-03-11T02:58:19;2.70;99.90
39665;DHT22;26679;50.872;4.332;2023-03-11T03:00:44;3.30;99.90
39665;DHT22;26679;50.872;4.332;2023-03-11T03:03:10;2.70;99.90
39665;DHT22;26679;50.872;4.332;2023-03-11T03:05:35;2.70;99.90
39665;DHT22;26679;50.872;4.332;2023-03-11T03:08:01;2.70;99.90
39665;DHT22;26679;50.872;4.332;2023-03-11T03:10:27;2.70;99.90
39665;DHT22;26679;50.872;4.332;2023-03-11T03:12:53;2.70;99.90
39665;DHT22;26679;50.872;4.332;2023-03-11T03:15:18;2.80;99.90
39665;DHT22;26679;50.872;4.332;2023-03-11T03:17:44;2.70;99.90
39665;DHT22;26679;50.872;4.332;2023-03-11T03:20:10;2.70;99.90
39665;DHT22;26679;50.872;4.332;2023-03-11T03:22:42;2.70;99.90
39665;DHT22;26679;50.872;4.332;2023-03-11T03:25:08;2.80;99.90
39665;DHT22;26679;50.872;4.332;2023-03-11T03:27:34;3.00;99.90
39665;DHT22;26679;50.872;4.332;2023-03-11T03:30:00;3.20;99.90
39665;DHT22;26679;50.872;4.332;2023-03-11T03:32:28;1.70;99.90
39665;DHT22;26679;50.872;4.332;2023-03-11T03:34:57;3.30;99.90
39665;DHT22;26679;50.872;4.332;2023-03-11T03:37:26;3.20;99.90
39665;DHT22;26679;50.872;4.332;2023-03-11T03:39:52;3.30;99.90
39665;DHT22;26679;50.872;4.332;2023-03-11T03:42:21;2.80;99.90
39665;DHT22;26679;50.872;4.332;2023-03-11T03:44:52;3.40;99.90
39665;DHT22;26679;50.872;4.332;2023-03-11T03:47:18;2.80;99.90
39665;DHT22;26679;50.872;4.332;2023-03-11T03:49:46;3.50;99.90
39665;DHT22;26679;50.872;4.332;2023-03-11T03:52:12;2.90;99.90
39665;DHT22;26679;50.872;4.332;2023-03-11T03:54:38;3.40;99.90
39665;DHT22;26679;50.872;4.332;2023-03-11T03:57:09;3.30;99.90
39665;DHT22;26679;50.872;4.332;2023-03-11T03:59:35;3.30;99.90
39665;DHT22;26679;50.872;4.332;2023-03-11T04:02:00;3.30;99.90
39665;DHT22;26679;50.872;4.332;2023-03-11T04:04:26;3.80;99.90
39665;DHT22;26679;50.872;4.332;2023-03-11T04:06:54;1.80;99.90
39665;DHT22;26679;50.872;4.332;2023-03-11T04:09:20;3.00;99.90
39665;DHT22;26679;50.872;4.332;2023-03-11T04:11:46;3.10;99.90
39665;DHT22;26679;50.872;4.332;2023-03-11T04:14:14;3.10;99.90
39665;DHT22;26679;50.872;4.332;2023-03-11T04:16:41;3.00;99.90
39665;DHT22;26679;50.872;4.332;2023-03-11T04:19:07;3.00;99.90
39665;DHT22;26679;50.872;4.332;2023-03-11T04:21:35;2.10;99.90
39665;DHT22;26679;50.872;4.332;2023-03-11T04:24:03;2.30;99.90
39665;DHT22;26679;50.872;4.332;2023-03-11T04:26:29;3.90;99.90
39665;DHT22;26679;50.872;4.332;2023-03-11T04:28:55;2.90;99.90
39665;DHT22;26679;50.872;4.332;2023-03-11T04:31:20;2.90;99.90
39665;DHT22;26679;50.872;4.332;2023-03-11T04:33:48;3.10;99.90
39665;DHT22;26679;50.872;4.332;2023-03-11T04:36:14;2.90;99.90
39665;DHT22;26679;50.872;4.332;2023-03-11T04:38:39;2.90;99.90
39665;DHT22;26679;50.872;4.332;2023-03-11T04:41:05;3.20;99.90
39665;DHT22;26679;50.872;4.332;2023-03-11T04:43:32;2.80;99.90
39665;DHT22;26679;50.872;4.332;2023-03-11T04:45:57;2.70;99.90
39665;DHT22;26679;50.872;4.332;2023-03-11T04:48:23;2.70;99.90
39665;DHT22;26679;50.872;4.332;2023-03-11T04:50:51;2.70;99.90
39665;DHT22;26679;50.872;4.332;2023-03-11T04:53:20;2.00;99.90
39665;DHT22;26679;50.872;4.332;2023-03-11T04:55:45;2.70;99.90
39665;DHT22;26679;50.872;4.332;2023-03-11T04:58:12;4.20;99.90
39665;DHT22;26679;50.872;4.332;2023-03-11T05:00:40;3.30;99.90
39665;DHT22;26679;50.872;4.332;2023-03-11T05:03:06;2.60;99.90
39665;DHT22;26679;50.872;4.332;2023-03-11T05:05:32;3.90;99.90
39665;DHT22;26679;50.872;4.332;2023-03-11T05:07:57;2.60;99.90
39665;DHT22;26679;50.872;4.332;2023-03-11T05:10:23;2.60;99.90
39665;DHT22;26679;50.872;4.332;2023-03-11T05:12:49;2.60;99.90
39665;DHT22;26679;50.872;4.332;2023-03-11T05:17:58;2.50;99.90
39665;DHT22;26679;50.872;4.332;2023-03-11T05:20:24;2.60;99.90
39665;DHT22;26679;50.872;4.332;2023-03-11T05:22:50;2.50;99.90
39665;DHT22;26679;50.872;4.332;2023-03-11T05:25:16;2.40;99.90
39665;DHT22;26679;50.872;4.332;2023-03-11T05:27:42;2.30;99.90
39665;DHT22;26679;50.872;4.332;2023-03-11T05:30:07;2.30;99.90
39665;DHT22;26679;50.872;4.332;2023-03-11T05:32:34;2.30;99.90
39665;DHT22;26679;50.872;4.332;2023-03-11T05:35:00;2.30;99.90
39665;DHT22;26679;50.872;4.332;2023-03-11T05:37:25;2.30;99.90
39665;DHT22;26679;50.872;4.332;2023-03-11T05:39:51;2.40;99.90
39665;DHT22;26679;50.872;4.332;2023-03-11T05:42:17;2.40;99.90
39665;DHT22;26679;50.872;4.332;2023-03-11T05:44:42;2.40;99.90
39665;DHT22;26679;50.872;4.332;2023-03-11T05:47:08;2.40;99.90
39665;DHT22;26679;50.872;4.332;2023-03-11T05:49:33;2.60;99.90
39665;DHT22;26679;50.872;4.332;2023-03-11T05:51:59;3.10;99.90
39665;DHT22;26679;50.872;4.332;2023-03-11T05:54:24;2.50;99.90
39665;DHT22;26679;50.872;4.332;2023-03-11T05:56:50;3.30;99.90
39665;DHT22;26679;50.872;4.332;2023-03-11T05:59:15;2.30;99.90
39665;DHT22;26679;50.872;4.332;2023-03-11T06:01:42;2.30;99.90
39665;DHT22;26679;50.872;4.332;2023-03-11T06:04:08;2.80;99.90
39665;DHT22;26679;50.872;4.332;2023-03-11T06:06:34;2.50;99.90
39665;DHT22;26679;50.872;4.332;2023-03-11T06:08:59;2.30;99.90
39665;DHT22;26679;50.872;4.332;2023-03-11T06:11:26;2.40;99.90
39665;DHT22;26679;50.872;4.332;2023-03-11T06:13:52;2.40;99.90
39665;DHT22;26679;50.872;4.332;2023-03-11T06:16:19;2.40;99.90
39665;DHT22;26679;50.872;4.332;2023-03-11T06:18:44;2.50;99.90
39665;DHT22;26679;50.872;4.332;2023-03-11T06:21:12;2.50;99.90
39665;DHT22;26679;50.872;4.332;2023-03-11T06:23:39;2.50;99.90
39665;DHT22;26679;50.872;4.332;2023-03-11T06:26:05;2.50;99.90
39665;DHT22;26679;50.872;4.332;2023-03-11T06:28:30;2.70;99.90
39665;DHT22;26679;50.872;4.332;2023-03-11T06:30:58;2.60;99.90
39665;DHT22;26679;50.872;4.332;2023-03-11T06:33:30;2.50;99.90
39665;DHT22;26679;50.872;4.332;2023-03-11T06:35:56;3.10;99.90
39665;DHT22;26679;50.872;4.332;2023-03-11T06:38:22;2.70;99.90
39665;DHT22;26679;50.872;4.332;2023-03-11T06:40:49;2.70;99.90
39665;DHT22;26679;50.872;4.332;2023-03-11T06:43:14;2.60;99.90
39665;DHT22;26679;50.872;4.332;2023-03-11T06:45:40;3.30;99.90
39665;DHT22;26679;50.872;4.332;2023-03-11T06:48:05;2.60;99.90
39665;DHT22;26679;50.872;4.332;2023-03-11T06:50:30;2.60;99.90
39665;DHT22;26679;50.872;4.332;2023-03-11T06:52:56;2.60;99.90
39665;DHT22;26679;50.872;4.332;2023-03-11T06:55:22;2.70;99.90
39665;DHT22;26679;50.872;4.332;2023-03-11T06:57:47;2.70;99.90
39665;DHT22;26679;50.872;4.332;2023-03-11T07:00:14;2.70;99.90
39665;DHT22;26679;50.872;4.332;2023-03-11T07:02:39;2.80;99.90
39665;DHT22;26679;50.872;4.332;2023-03-11T07:05:05;2.80;99.90
39665;DHT22;26679;50.872;4.332;2023-03-11T07:07:31;2.80;99.90
39665;DHT22;26679;50.872;4.332;2023-03-11T07:09:56;3.00;99.90
39665;DHT22;26679;50.872;4.332;2023-03-11T07:12:22;2.90;99.90
39665;DHT22;26679;50.872;4.332;2023-03-11T07:14:53;2.90;99.90
39665;DHT22;26679;50.872;4.332;2023-03-11T07:17:18;2.90;99.90
39665;DHT22;26679;50.872;4.332;2023-03-11T07:19:44;3.00;99.90
39665;DHT22;26679;50.872;4.332;2023-03-11T07:22:09;3.00;99.90
39665;DHT22;26679;50.872;4.332;2023-03-11T07:24:35;3.10;99.90
39665;DHT22;26679;50.872;4.332;2023-03-11T07:27:01;3.10;99.90
39665;DHT22;26679;50.872;4.332;2023-03-11T07:29:26;3.10;99.90
39665;DHT22;26679;50.872;4.332;2023-03-11T07:31:52;3.10;99.90
39665;DHT22;26679;50.872;4.332;2023-03-11T07:34:17;3.10;99.90
39665;DHT22;26679;50.872;4.332;2023-03-11T07:36:43;3.10;99.90
39665;DHT22;26679;50.872;4.332;2023-03-11T07:39:11;3.10;99.90
39665;DHT22;26679;50.872;4.332;2023-03-11T07:41:37;3.10;99.90
39665;DHT22;26679;50.872;4.332;2023-03-11T07:44:03;3.10;99.90
39665;DHT22;26679;50.872;4.332;2023-03-11T07:46:29;3.10;99.90
39665;DHT22;26679;50.872;4.332;2023-03-11T07:48:57;3.10;99.90
39665;DHT22;26679;50.872;4.332;2023-03-11T07:51:27;3.10;99.90
39665;DHT22;26679;50.872;4.332;2023-03-11T07:53:53;3.10;99.90
39665;DHT22;26679;50.872;4.332;2023-03-11T07:56:20;3.20;99.90
39665;DHT22;26679;50.872;4.332;2023-03-11T07:58:48;3.20;99.90
39665;DHT22;26679;50.872;4.332;2023-03-11T08:01:14;3.30;99.90
39665;DHT22;26679;50.872;4.332;2023-03-11T08:03:41;3.30;99.90
39665;DHT22;26679;50.872;4.332;2023-03-11T08:06:13;4.50;99.90
39665;DHT22;26679;50.872;4.332;2023-03-11T08:08:39;3.40;99.90
39665;DHT22;26679;50.872;4.332;2023-03-11T08:11:05;3.40;99.90
39665;DHT22;26679;50.872;4.332;2023-03-11T08:13:32;3.40;99.90
39665;DHT22;26679;50.872;4.332;2023-03-11T08:15:58;3.50;99.90
39665;DHT22;26679;50.872;4.332;2023-03-11T08:18:23;3.60;99.90
39665;DHT22;26679;50.872;4.332;2023-03-11T08:20:54;3.60;99.90
39665;DHT22;26679;50.872;4.332;2023-03-11T08:23:22;3.60;99.90
39665;DHT22;26679;50.872;4.332;2023-03-11T08:25:48;3.70;99.90
39665;DHT22;26679;50.872;4.332;2023-03-11T08:28:15;4.70;99.90
39665;DHT22;26679;50.872;4.332;2023-03-11T08:30:53;3.80;99.90
39665;DHT22;26679;50.872;4.332;2023-03-11T08:33:21;3.90;99.90
39665;DHT22;26679;50.872;4.332;2023-03-11T08:35:47;4.60;99.90
39665;DHT22;26679;50.872;4.332;2023-03-11T08:38:16;4.00;99.90
39665;DHT22;26679;50.872;4.332;2023-03-11T08:40:45;4.40;99.90
39665;DHT22;26679;50.872;4.332;2023-03-11T08:43:13;5.50;99.90
39665;DHT22;26679;50.872;4.332;2023-03-11T08:45:40;6.50;99.90
39665;DHT22;26679;50.872;4.332;2023-03-11T08:48:06;7.60;99.90
39665;DHT22;26679;50.872;4.332;2023-03-11T08:50:31;8.60;99.90
39665;DHT22;26679;50.872;4.332;2023-03-11T08:52:59;9.60;99.90
39665;DHT22;26679;50.872;4.332;2023-03-11T08:55:27;9.90;99.90
39665;DHT22;26679;50.872;4.332;2023-03-11T08:57:53;10.30;99.90
39665;DHT22;26679;50.872;4.332;2023-03-11T09:00:18;10.60;99.90
39665;DHT22;26679;50.872;4.332;2023-03-11T09:02:46;11.10;99.90
39665;DHT22;26679;50.872;4.332;2023-03-11T09:05:12;11.80;99.90
39665;DHT22;26679;50.872;4.332;2023-03-11T09:07:37;12.20;99.90
39665;DHT22;26679;50.872;4.332;2023-03-11T09:10:03;12.20;99.90
39665;DHT22;26679;50.872;4.332;2023-03-11T09:12:29;12.40;99.90
39665;DHT22;26679;50.872;4.332;2023-03-11T09:14:54;12.80;99.90
39665;DHT22;26679;50.872;4.332;2023-03-11T09:17:20;13.30;99.90
39665;DHT22;26679;50.872;4.332;2023-03-11T09:19:47;13.50;99.90
39665;DHT22;26679;50.872;4.332;2023-03-11T09:22:13;13.80;99.90
39665;DHT22;26679;50.872;4.332;2023-03-11T09:24:38;14.00;99.40
39665;DHT22;26679;50.872;4.332;2023-03-11T09:27:04;14.20;99.50
39665;DHT22;26679;50.872;4.332;2023-03-11T09:29:30;14.50;98.60
39665;DHT22;26679;50.872;4.332;2023-03-11T09:31:56;14.60;97.80
39665;DHT22;26679;50.872;4.332;2023-03-11T09:34:22;14.10;97.40
39665;DHT22;26679;50.872;4.332;2023-03-11T09:36:47;13.30;96.40
39665;DHT22;26679;50.872;4.332;2023-03-11T09:39:13;12.60;97.20
39665;DHT22;26679;50.872;4.332;2023-03-11T09:41:45;11.50;97.20
39665;DHT22;26679;50.872;4.332;2023-03-11T09:51:42;10.20;99.90
39665;DHT22;26679;50.872;4.332;2023-03-11T09:54:10;11.10;99.90
39665;DHT22;26679;50.872;4.332;2023-03-11T09:56:35;12.00;98.80
39665;DHT22;26679;50.872;4.332;2023-03-11T09:59:11;12.80;97.80
39665;DHT22;26679;50.872;4.332;2023-03-11T10:01:39;12.80;95.40
39665;DHT22;26679;50.872;4.332;2023-03-11T10:06:35;12.60;96.50
39665;DHT22;26679;50.872;4.332;2023-03-11T10:22:33;15.20;92.80
39665;DHT22;26679;50.872;4.332;2023-03-11T10:24:47;16.10;91.40
39665;DHT22;26679;50.872;4.332;2023-03-11T10:27:16;16.40;89.50
39665;DHT22;26679;50.872;4.332;2023-03-11T10:29:50;16.50;90.40
39665;DHT22;26679;50.872;4.332;2023-03-11T10:34:54;17.00;88.90
39665;DHT22;26679;50.872;4.332;2023-03-11T10:40:01;15.90;88.50
39665;DHT22;26679;50.872;4.332;2023-03-11T10:42:30;15.00;88.30
39665;DHT22;26679;50.872;4.332;2023-03-11T10:44:57;14.40;90.00
39665;DHT22;26679;50.872;4.332;2023-03-11T10:47:23;13.50;90.30
39665;DHT22;26679;50.872;4.332;2023-03-11T10:49:50;13.40;90.80
39665;DHT22;26679;50.872;4.332;2023-03-11T10:52:19;13.40;90.90
39665;DHT22;26679;50.872;4.332;2023-03-11T10:54:45;13.50;90.80
39665;DHT22;26679;50.872;4.332;2023-03-11T10:59:50;13.80;90.60
39665;DHT22;26679;50.872;4.332;2023-03-11T11:07:27;13.70;90.80
39665;DHT22;26679;50.872;4.332;2023-03-11T11:12:29;13.40;90.20
39665;DHT22;26679;50.872;4.332;2023-03-11T11:14:55;12.90;90.50
39665;DHT22;26679;50.872;4.332;2023-03-11T11:17:31;12.80;90.90
39665;DHT22;26679;50.872;4.332;2023-03-11T11:19:58;13.10;91.10
39665;DHT22;26679;50.872;4.332;2023-03-11T11:22:25;14.20;91.40
39665;DHT22;26679;50.872;4.332;2023-03-11T11:24:54;14.80;90.30
39665;DHT22;26679;50.872;4.332;2023-03-11T11:27:25;15.10;85.70
39665;DHT22;26679;50.872;4.332;2023-03-11T11:32:27;14.30;88.20
39665;DHT22;26679;50.872;4.332;2023-03-11T11:34:57;14.30;87.40
39665;DHT22;26679;50.872;4.332;2023-03-11T11:37:24;13.90;88.40
39665;DHT22;26679;50.872;4.332;2023-03-11T11:39:54;13.80;88.70
39665;DHT22;26679;50.872;4.332;2023-03-11T11:42:22;13.80;89.60
39665;DHT22;26679;50.872;4.332;2023-03-11T11:44:51;13.60;89.10
39665;DHT22;26679;50.872;4.332;2023-03-11T11:47:20;13.50;90.00
39665;DHT22;26679;50.872;4.332;2023-03-11T11:49:49;13.20;89.50
39665;DHT22;26679;50.872;4.332;2023-03-11T11:52:21;13.10;90.00
39665;DHT22;26679;50.872;4.332;2023-03-11T11:57:25;13.10;88.60
39665;DHT22;26679;50.872;4.332;2023-03-11T11:59:51;12.90;88.00
39665;DHT22;26679;50.872;4.332;2023-03-11T12:07:37;12.60;90.20
39665;DHT22;26679;50.872;4.332;2023-03-11T12:12:43;12.80;90.00
39665;DHT22;26679;50.872;4.332;2023-03-11T12:17:37;14.30;88.30
39665;DHT22;26679;50.872;4.332;2023-03-11T12:22:40;15.00;87.80
39665;DHT22;26679;50.872;4.332;2023-03-11T12:27:56;15.10;86.50
39665;DHT22;26679;50.872;4.332;2023-03-11T12:30:30;15.00;85.80
39665;DHT22;26679;50.872;4.332;2023-03-11T12:33:02;14.90;86.40
39665;DHT22;26679;50.872;4.332;2023-03-11T12:35:33;14.90;87.30
39665;DHT22;26679;50.872;4.332;2023-03-11T12:38:03;15.00;86.50
39665;DHT22;26679;50.872;4.332;2023-03-11T12:45:46;16.60;83.20
39665;DHT22;26679;50.872;4.332;2023-03-11T12:50:49;16.30;84.00
39665;DHT22;26679;50.872;4.332;2023-03-11T12:53:15;16.00;83.30
39665;DHT22;26679;50.872;4.332;2023-03-11T12:55:53;15.10;82.80
39665;DHT22;26679;50.872;4.332;2023-03-11T12:58:29;14.90;84.60
39665;DHT22;26679;50.872;4.332;2023-03-11T13:01:10;16.10;84.00
39665;DHT22;26679;50.872;4.332;2023-03-11T13:03:39;15.80;82.80
39665;DHT22;26679;50.872;4.332;2023-03-11T13:16:43;16.00;83.10
39665;DHT22;26679;50.872;4.332;2023-03-11T13:21:45;16.50;79.70
39665;DHT22;26679;50.872;4.332;2023-03-11T13:26:47;17.80;80.00
39665;DHT22;26679;50.872;4.332;2023-03-11T13:34:30;15.90;79.90
39665;DHT22;26679;50.872;4.332;2023-03-11T13:41:58;18.50;78.90
39665;DHT22;26679;50.872;4.332;2023-03-11T13:47:03;19.50;77.80
39665;DHT22;26679;50.872;4.332;2023-03-11T13:51:55;19.60;75.50
39665;DHT22;26679;50.872;4.332;2023-03-11T13:56:54;19.10;75.60
39665;DHT22;26679;50.872;4.332;2023-03-11T13:59:25;19.20;74.90
39665;DHT22;26679;50.872;4.332;2023-03-11T14:01:52;19.60;73.70
39665;DHT22;26679;50.872;4.332;2023-03-11T14:04:19;19.80;72.80
39665;DHT22;26679;50.872;4.332;2023-03-11T14:06:47;19.90;71.90
39665;DHT22;26679;50.872;4.332;2023-03-11T14:09:17;19.10;70.50
39665;DHT22;26679;50.872;4.332;2023-03-11T14:11:43;18.00;71.90
39665;DHT22;26679;50.872;4.332;2023-03-11T14:14:25;16.90;72.80
39665;DHT22;26679;50.872;4.332;2023-03-11T14:16:52;16.40;73.80
39665;DHT22;26679;50.872;4.332;2023-03-11T14:19:18;15.80;74.30
39665;DHT22;26679;50.872;4.332;2023-03-11T14:21:45;15.20;74.40
39665;DHT22;26679;50.872;4.332;2023-03-11T14:24:18;14.60;74.10
39665;DHT22;26679;50.872;4.332;2023-03-11T14:26:44;14.10;74.50
39665;DHT22;26679;50.872;4.332;2023-03-11T14:29:19;13.80;75.70
39665;DHT22;26679;50.872;4.332;2023-03-11T14:31:45;13.60;76.60
39665;DHT22;26679;50.872;4.332;2023-03-11T14:34:15;13.70;76.20
39665;DHT22;26679;50.872;4.332;2023-03-11T14:36:42;14.10;75.90
39665;DHT22;26679;50.872;4.332;2023-03-11T14:39:25;14.60;75.70
39665;DHT22;26679;50.872;4.332;2023-03-11T14:41:51;15.20;76.50
39665;DHT22;26679;50.872;4.332;2023-03-11T14:44:18;15.70;76.30
39665;DHT22;26679;50.872;4.332;2023-03-11T14:46:43;16.10;74.40
39665;DHT22;26679;50.872;4.332;2023-03-11T14:49:16;16.60;74.10
39665;DHT22;26679;50.872;4.332;2023-03-11T14:51:44;16.80;72.40
39665;DHT22;26679;50.872;4.332;2023-03-11T14:56:50;14.90;74.60
39665;DHT22;26679;50.872;4.332;2023-03-11T14:59:24;14.20;77.00
39665;DHT22;26679;50.872;4.332;2023-03-11T15:01:51;13.40;76.90
39665;DHT22;26679;50.872;4.332;2023-03-11T15:06:57;12.90;78.10
39665;DHT22;26679;50.872;4.332;2023-03-11T15:09:23;12.70;79.00
39665;DHT22;26679;50.872;4.332;2023-03-11T15:11:56;12.50;80.00
39665;DHT22;26679;50.872;4.332;2023-03-11T15:14:27;12.50;80.40
39665;DHT22;26679;50.872;4.332;2023-03-11T15:17:07;12.40;80.70
39665;DHT22;26679;50.872;4.332;2023-03-11T15:19:33;12.40;81.30
39665;DHT22;26679;50.872;4.332;2023-03-11T15:24:36;12.10;80.40
39665;DHT22;26679;50.872;4.332;2023-03-11T15:29:28;11.90;82.70
39665;DHT22;26679;50.872;4.332;2023-03-11T15:31:54;11.40;83.90
39665;DHT22;26679;50.872;4.332;2023-03-11T15:47:09;11.40;81.80
39665;DHT22;26679;50.872;4.332;2023-03-11T15:49:40;11.10;83.50
39665;DHT22;26679;50.872;4.332;2023-03-11T15:52:06;11.10;82.10
39665;DHT22;26679;50.872;4.332;2023-03-11T15:54:31;10.90;82.20
39665;DHT22;26679;50.872;4.332;2023-03-11T15:56:58;10.80;82.10
39665;DHT22;26679;50.872;4.332;2023-03-11T15:59:27;10.80;81.90
39665;DHT22;26679;50.872;4.332;2023-03-11T16:01:53;10.50;82.10
39665;DHT22;26679;50.872;4.332;2023-03-11T16:04:19;10.60;82.50
39665;DHT22;26679;50.872;4.332;2023-03-11T16:06:45;10.70;82.10
39665;DHT22;26679;50.872;4.332;2023-03-11T16:09:11;10.80;82.20
39665;DHT22;26679;50.872;4.332;2023-03-11T16:11:37;10.80;82.40
39665;DHT22;26679;50.872;4.332;2023-03-11T16:14:05;10.80;82.20
39665;DHT22;26679;50.872;4.332;2023-03-11T16:16:31;9.60;80.60
39665;DHT22;26679;50.872;4.332;2023-03-11T16:18:56;10.90;81.90
39665;DHT22;26679;50.872;4.332;2023-03-11T16:21:23;11.00;82.40
39665;DHT22;26679;50.872;4.332;2023-03-11T16:23:49;11.00;82.00
39665;DHT22;26679;50.872;4.332;2023-03-11T16:26:15;11.00;82.40
39665;DHT22;26679;50.872;4.332;2023-03-11T16:28:41;11.00;82.30
39665;DHT22;26679;50.872;4.332;2023-03-11T16:31:06;11.10;82.60
39665;DHT22;26679;50.872;4.332;2023-03-11T16:33:35;11.00;82.40
39665;DHT22;26679;50.872;4.332;2023-03-11T16:36:01;11.00;83.00
39665;DHT22;26679;50.872;4.332;2023-03-11T16:38:28;11.00;82.80
39665;DHT22;26679;50.872;4.332;2023-03-11T16:40:56;10.90;82.90
39665;DHT22;26679;50.872;4.332;2023-03-11T16:43:24;10.80;83.50
39665;DHT22;26679;50.872;4.332;2023-03-11T16:45:50;10.70;83.40
39665;DHT22;26679;50.872;4.332;2023-03-11T16:48:17;10.50;84.70
39665;DHT22;26679;50.872;4.332;2023-03-11T16:50:43;10.40;84.70
39665;DHT22;26679;50.872;4.332;2023-03-11T16:53:11;10.40;84.90
39665;DHT22;26679;50.872;4.332;2023-03-11T16:55:46;10.20;84.30
39665;DHT22;26679;50.872;4.332;2023-03-11T16:58:12;10.20;84.60
39665;DHT22;26679;50.872;4.332;2023-03-11T17:00:38;10.20;85.50
39665;DHT22;26679;50.872;4.332;2023-03-11T17:03:06;10.10;84.80
39665;DHT22;26679;50.872;4.332;2023-03-11T17:05:32;10.00;85.30
39665;DHT22;26679;50.872;4.332;2023-03-11T17:07:58;10.10;85.70
39665;DHT22;26679;50.872;4.332;2023-03-11T17:10:35;9.20;85.80
39665;DHT22;26679;50.872;4.332;2023-03-11T17:13:02;10.00;86.00
39665;DHT22;26679;50.872;4.332;2023-03-11T17:15:29;10.10;86.00
39665;DHT22;26679;50.872;4.332;2023-03-11T17:17:56;10.10;86.10
39665;DHT22;26679;50.872;4.332;2023-03-11T17:20:22;10.10;86.50
39665;DHT22;26679;50.872;4.332;2023-03-11T17:22:47;10.00;86.50
39665;DHT22;26679;50.872;4.332;2023-03-11T17:25:13;9.90;86.90
39665;DHT22;26679;50.872;4.332;2023-03-11T17:27:42;9.80;86.50
39665;DHT22;26679;50.872;4.332;2023-03-11T17:30:07;9.70;86.20
39665;DHT22;26679;50.872;4.332;2023-03-11T17:32:33;9.70;86.80
39665;DHT22;26679;50.872;4.332;2023-03-11T17:35:00;9.70;87.20
39665;DHT22;26679;50.872;4.332;2023-03-11T17:37:27;9.60;87.40
39665;DHT22;26679;50.872;4.332;2023-03-11T17:39:52;9.60;86.90
39665;DHT22;26679;50.872;4.332;2023-03-11T17:42:18;9.50;87.10
39665;DHT22;26679;50.872;4.332;2023-03-11T17:44:47;9.50;87.90
39665;DHT22;26679;50.872;4.332;2023-03-11T17:47:12;8.90;87.20
39665;DHT22;26679;50.872;4.332;2023-03-11T17:49:38;8.60;88.90
39665;DHT22;26679;50.872;4.332;2023-03-11T17:52:04;9.10;89.20
39665;DHT22;26679;50.872;4.332;2023-03-11T17:54:29;9.20;89.40